Time;durP1;ratioP1;P1;durP2;ratioP2;P2;SDS_P1;SDS_P2;PMS_P1;PMS_P2;Temp;Humidity;BMP_temperature;BMP_pressure;BME280_temperature;BME280_humidity;BME280_pressure;Samples;Min_cycle;Max_cycle;Signal;HPM_P1;HPM_P2
2022/02/06 00:02:26;;;;;;;0.10;0.10;;;;;;;;;;5034225;28;20036;-92
2022/02/06 00:04:52;;;;;;;0.10;0.10;;;;;;;;;;5018634;28;20480;-92
2022/02/06 00:07:18;;;;;;;0.13;0.13;;;;;;;;;;5017831;28;20167;-92
2022/02/06 00:09:46;;;;;;;0.95;0.95;;;;;;;;;;5017781;28;20246;-91
2022/02/06 00:12:12;;;;;;;0.10;0.10;;;;;;;;;;5017919;28;20049;-91
2022/02/06 00:14:38;;;;;;;0.10;0.10;;;;;;;;;;5017846;28;20144;-90
2022/02/06 00:17:04;;;;;;;0.10;0.10;;;;;;;;;;5017694;28;20043;-90
2022/02/06 00:19:30;;;;;;;0.10;0.10;;;;;;;;;;5017515;28;20495;-90
2022/02/06 00:21:56;;;;;;;0.10;0.10;;;;;;;;;;5017464;28;20033;-90
2022/02/06 00:24:36;;;;;;;0.03;0.03;;;;;;;;;;5017349;28;20488;-92
2022/02/06 00:27:06;;;;;;;0.10;0.10;;;;;;;;;;5019600;28;20037;-92
2022/02/06 00:29:44;;;;;;;0.10;0.10;;;;;;;;;;5018368;28;20049;-91
2022/02/06 00:32:23;;;;;;;0.10;0.10;;;;;;;;;;5019118;28;20037;-91
2022/02/06 00:40:13;;;;;;;0.00;0.00;;;;;;;;;;5036752;28;20045;-93
2022/02/06 00:42:39;;;;;;;0.10;0.10;;;;;;;;;;5017697;28;20048;-91
2022/02/06 00:45:06;;;;;;;2.72;2.10;;;;;;;;;;5017809;28;20388;-91
2022/02/06 00:47:32;;;;;;;0.05;0.05;;;;;;;;;;5020639;28;20561;-91
2022/02/06 00:49:59;;;;;;;0.10;0.10;;;;;;;;;;5037272;28;20140;-91
2022/02/06 00:52:32;;;;;;;0.10;0.10;;;;;;;;;;5021057;28;20067;-90
2022/02/06 00:54:59;;;;;;;0.90;0.60;;;;;;;;;;5022103;28;20078;-90
2022/02/06 00:57:27;;;;;;;0.10;0.10;;;;;;;;;;5020980;28;20037;-92
2022/02/06 00:59:53;;;;;;;0.10;0.10;;;;;;;;;;5021068;28;20067;-91
2022/02/06 01:02:19;;;;;;;0.10;0.10;;;;;;;;;;5054283;28;20037;-91
2022/02/06 01:04:45;;;;;;;0.10;0.10;;;;;;;;;;5037547;28;20047;-93
2022/02/06 01:07:11;;;;;;;0.15;0.15;;;;;;;;;;5021197;28;20056;-92
2022/02/06 01:09:37;;;;;;;0.10;0.10;;;;;;;;;;5020990;28;20132;-92
2022/02/06 01:12:03;;;;;;;0.10;0.10;;;;;;;;;;5037204;28;20496;-92
2022/02/06 01:14:43;;;;;;;0.10;0.10;;;;;;;;;;5053610;28;20118;-93
2022/02/06 01:17:26;;;;;;;0.10;0.10;;;;;;;;;;5022798;28;20045;-93
2022/02/06 01:20:04;;;;;;;0.90;0.52;;;;;;;;;;5022992;28;20296;-91
2022/02/06 01:22:33;;;;;;;0.10;0.10;;;;;;;;;;5022180;28;20500;-92
2022/02/06 01:25:07;;;;;;;0.00;0.00;;;;;;;;;;5037849;28;20354;-92
2022/02/06 01:27:57;;;;;;;0.10;0.10;;;;;;;;;;5021734;28;20045;-91
2022/02/06 01:30:44;;;;;;;0.10;0.10;;;;;;;;;;5023456;28;20080;-92
2022/02/06 01:33:15;;;;;;;0.38;0.38;;;;;;;;;;5023215;28;20430;-91
2022/02/06 01:38:20;;;;;;;0.10;0.10;;;;;;;;;;5053629;28;20044;-91
2022/02/06 01:41:01;;;;;;;0.10;0.10;;;;;;;;;;5038010;28;20041;-94
2022/02/06 01:43:39;;;;;;;0.13;0.13;;;;;;;;;;5022516;28;20044;-91
2022/02/06 01:57:27;;;;;;;0.10;0.10;;;;;;;;;;5038245;28;20144;-91
2022/02/06 02:02:55;;;;;;;0.10;0.10;;;;;;;;;;5038687;28;20053;-91
2022/02/06 02:24:19;;;;;;;0.10;0.10;;;;;;;;;;5037778;28;20372;-91
2022/02/06 02:32:12;;;;;;;1.25;0.30;;;;;;;;;;5037335;28;20049;-90
2022/02/06 02:45:50;;;;;;;0.10;0.10;;;;;;;;;;5037737;28;20048;-91
2022/02/06 02:48:18;;;;;;;0.10;0.10;;;;;;;;;;5021189;28;20071;-90
2022/02/06 02:50:50;;;;;;;0.10;0.10;;;;;;;;;;5018845;28;20057;-90
2022/02/06 03:01:22;;;;;;;0.30;0.30;;;;;;;;;;5035235;28;20048;-91
2022/02/06 03:03:36;;;;;;;0.10;0.10;;;;;;;;;;5036283;28;20041;-92
2022/02/06 03:06:03;;;;;;;0.10;0.10;;;;;;;;;;5019035;28;20263;-92
2022/02/06 03:08:29;;;;;;;0.10;0.10;;;;;;;;;;5017858;28;20086;-92
2022/02/06 03:10:58;;;;;;;0.10;0.10;;;;;;;;;;5018645;28;20147;-92
2022/02/06 03:13:30;;;;;;;0.20;0.20;;;;;;;;;;5018860;28;20036;-91
2022/02/06 03:18:27;;;;;;;0.10;0.10;;;;;;;;;;5035016;28;20041;-91
2022/02/06 03:20:54;;;;;;;0.10;0.10;;;;;;;;;;5035433;28;20112;-90
2022/02/06 03:23:20;;;;;;;0.10;0.10;;;;;;;;;;5034704;28;20363;-91
2022/02/06 03:25:52;;;;;;;0.10;0.10;;;;;;;;;;5018304;28;20073;-90
2022/02/06 03:28:19;;;;;;;0.38;0.28;;;;;;;;;;5035519;28;20404;-91
2022/02/06 03:30:45;;;;;;;0.10;0.10;;;;;;;;;;5018305;28;20459;-89
2022/02/06 03:33:11;;;;;;;0.32;0.20;;;;;;;;;;5050692;28;20044;-90
2022/02/06 03:35:37;;;;;;;0.10;0.10;;;;;;;;;;5034445;28;20041;-90
2022/02/06 03:38:03;;;;;;;0.10;0.10;;;;;;;;;;5034349;28;20056;-91
2022/02/06 03:40:34;;;;;;;0.10;0.10;;;;;;;;;;5018164;28;20095;-91
2022/02/06 03:43:08;;;;;;;0.10;0.10;;;;;;;;;;5019098;28;20045;-90
2022/02/06 03:45:40;;;;;;;0.10;0.10;;;;;;;;;;5035594;28;20368;-90
2022/02/06 03:48:21;;;;;;;;;;;;;;;;;;5019547;28;20109;-90
2022/02/06 03:50:50;;;;;;;0.10;0.10;;;;;;;;;;5034108;28;20423;-90
2022/02/06 03:53:19;;;;;;;0.10;0.10;;;;;;;;;;5034837;28;20049;-91
2022/02/06 03:55:46;;;;;;;0.10;0.10;;;;;;;;;;5018068;28;20049;-90
2022/02/06 03:58:12;;;;;;;0.10;0.10;;;;;;;;;;5017652;28;20488;-90
2022/02/06 04:00:38;;;;;;;0.10;0.10;;;;;;;;;;5034027;28;20040;-92
2022/02/06 04:03:04;;;;;;;0.10;0.10;;;;;;;;;;5050364;28;20044;-90
2022/02/06 04:05:31;;;;;;;0.10;0.10;;;;;;;;;;5050668;28;20037;-90
2022/02/06 04:07:57;;;;;;;0.10;0.10;;;;;;;;;;5017707;28;20056;-90
2022/02/06 04:10:25;;;;;;;0.40;0.10;;;;;;;;;;5017398;28;20415;-90
2022/02/06 04:12:51;;;;;;;0.20;0.20;;;;;;;;;;5017735;28;20041;-90
2022/02/06 04:15:27;;;;;;;0.10;0.10;;;;;;;;;;5017358;28;20129;-90
2022/02/06 04:18:09;;;;;;;0.10;0.10;;;;;;;;;;5019481;28;20044;-91
2022/02/06 04:20:35;;;;;;;0.10;0.10;;;;;;;;;;5022121;28;20105;-92
2022/02/06 04:23:01;;;;;;;0.10;0.10;;;;;;;;;;5021519;28;20140;-91
2022/02/06 04:25:27;;;;;;;0.10;0.10;;;;;;;;;;5021751;28;20155;-91
2022/02/06 04:27:54;;;;;;;0.10;0.10;;;;;;;;;;5021701;28;20096;-91
2022/02/06 04:30:20;;;;;;;0.10;0.10;;;;;;;;;;5054873;28;20131;-93
2022/02/06 04:32:46;;;;;;;1.88;0.50;;;;;;;;;;5037794;28;20044;-92
2022/02/06 04:35:19;;;;;;;0.10;0.10;;;;;;;;;;5021315;28;20044;-90
2022/02/06 04:38:33;;;;;;;0.20;0.20;;;;;;;;;;5022611;28;20061;-92
2022/02/06 04:41:02;;;;;;;0.10;0.10;;;;;;;;;;5039280;28;20048;-91
2022/02/06 05:11:12;;;;;;;0.10;0.10;;;;;;;;;;5039944;28;20041;-91
2022/02/06 05:16:50;;;;;;;0.10;0.10;;;;;;;;;;5025321;28;20053;-90
2022/02/06 05:24:20;;;;;;;0.50;0.50;;;;;;;;;;5053484;28;20053;-92
2022/02/06 05:29:19;;;;;;;0.10;0.10;;;;;;;;;;5037092;28;20511;-91
2022/02/06 05:34:17;;;;;;;0.10;0.10;;;;;;;;;;5037910;28;20412;-92
2022/02/06 05:36:43;;;;;;;4.03;0.20;;;;;;;;;;5020024;28;20049;-90
2022/02/06 05:39:09;;;;;;;0.10;0.10;;;;;;;;;;5052776;28;20569;-90
2022/02/06 05:41:35;;;;;;;0.10;0.10;;;;;;;;;;5019896;28;20045;-90
2022/02/06 05:44:03;;;;;;;0.10;0.10;;;;;;;;;;5036114;28;20047;-90
2022/02/06 05:46:29;;;;;;;0.28;0.17;;;;;;;;;;5019941;28;20052;-89
2022/02/06 05:48:55;;;;;;;0.10;0.10;;;;;;;;;;5020196;28;20485;-90
2022/02/06 05:51:21;;;;;;;0.28;0.28;;;;;;;;;;5019293;28;20118;-90
2022/02/06 05:53:47;;;;;;;0.10;0.10;;;;;;;;;;5019768;28;20059;-89
2022/02/06 05:56:16;;;;;;;0.10;0.10;;;;;;;;;;5052473;28;20095;-90
2022/02/06 05:58:42;;;;;;;0.20;0.20;;;;;;;;;;5036499;28;20076;-89
2022/02/06 06:01:09;;;;;;;0.10;0.10;;;;;;;;;;5036007;28;20044;-89
2022/02/06 06:03:35;;;;;;;0.10;0.10;;;;;;;;;;5019643;28;20041;-90
2022/02/06 06:06:00;;;;;;;0.10;0.10;;;;;;;;;;5019605;28;20117;-90
2022/02/06 06:08:26;;;;;;;0.10;0.10;;;;;;;;;;5019744;28;20052;-91
2022/02/06 06:10:52;;;;;;;0.10;0.10;;;;;;;;;;5019765;28;20044;-92
2022/02/06 06:13:18;;;;;;;0.10;0.10;;;;;;;;;;5019961;28;20508;-92
2022/02/06 06:15:45;;;;;;;0.20;0.20;;;;;;;;;;5019955;28;20131;-92
2022/02/06 06:18:13;;;;;;;0.10;0.10;;;;;;;;;;5019848;28;20037;-93
2022/02/06 06:20:40;;;;;;;0.10;0.10;;;;;;;;;;5019910;28;20048;-93
2022/02/06 06:23:06;;;;;;;0.10;0.10;;;;;;;;;;5019621;28;20055;-93
2022/02/06 06:25:39;;;;;;;0.10;0.10;;;;;;;;;;5036214;28;20040;-94
2022/02/06 06:28:06;;;;;;;0.10;0.10;;;;;;;;;;5020836;28;20053;-93
2022/02/06 06:30:35;;;;;;;0.10;0.10;;;;;;;;;;5019830;28;20045;-92
2022/02/06 06:33:01;;;;;;;0.10;0.10;;;;;;;;;;5019662;28;20048;-92
2022/02/06 06:35:27;;;;;;;0.10;0.10;;;;;;;;;;5019424;28;20037;-93
2022/02/06 06:37:53;;;;;;;0.10;0.10;;;;;;;;;;5019317;28;20086;-92
2022/02/06 06:40:19;;;;;;;0.10;0.10;;;;;;;;;;5019107;28;20036;-91
2022/02/06 06:42:45;;;;;;;0.10;0.10;;;;;;;;;;5018995;28;20460;-92
2022/02/06 06:45:11;;;;;;;0.10;0.10;;;;;;;;;;5019274;28;20051;-93
2022/02/06 06:47:37;;;;;;;0.17;0.17;;;;;;;;;;5019380;28;20064;-93
2022/02/06 06:50:05;;;;;;;0.20;0.20;;;;;;;;;;5018961;28;20064;-93
2022/02/06 06:52:31;;;;;;;0.10;0.10;;;;;;;;;;5019340;28;20125;-91
2022/02/06 06:55:02;;;;;;;0.10;0.10;;;;;;;;;;5035482;28;20045;-91
2022/02/06 06:57:35;;;;;;;0.43;0.43;;;;;;;;;;5019960;28;20197;-91
2022/02/06 07:00:20;;;;;;;0.10;0.10;;;;;;;;;;5020129;28;20431;-91
2022/02/06 07:02:46;;;;;;;0.10;0.10;;;;;;;;;;5021310;28;20472;-92
2022/02/06 07:05:12;;;;;;;0.10;0.10;;;;;;;;;;5019017;28;20043;-91
2022/02/06 07:07:38;;;;;;;0.10;0.10;;;;;;;;;;5018653;28;20381;-91
2022/02/06 07:10:05;;;;;;;2.65;0.22;;;;;;;;;;5019182;28;20041;-92
2022/02/06 07:12:31;;;;;;;0.10;0.10;;;;;;;;;;5018844;28;20408;-92
2022/02/06 07:14:57;;;;;;;0.10;0.10;;;;;;;;;;5018732;28;20044;-90
2022/02/06 07:17:23;;;;;;;0.10;0.10;;;;;;;;;;5035447;28;20047;-91
2022/02/06 07:19:49;;;;;;;0.10;0.10;;;;;;;;;;5018248;28;20511;-93
2022/02/06 07:22:16;;;;;;;0.10;0.10;;;;;;;;;;5018105;28;20037;-90
2022/02/06 07:24:45;;;;;;;0.10;0.10;;;;;;;;;;5018521;28;20400;-89
2022/02/06 07:27:24;;;;;;;0.10;0.10;;;;;;;;;;5034685;28;20037;-89
2022/02/06 07:29:50;;;;;;;0.10;0.10;;;;;;;;;;5050964;28;20091;-89
2022/02/06 07:32:16;;;;;;;0.10;0.10;;;;;;;;;;5034513;28;20174;-91
2022/02/06 07:34:42;;;;;;;0.10;0.10;;;;;;;;;;5018308;28;20055;-89
2022/02/06 07:37:08;;;;;;;0.10;0.10;;;;;;;;;;5017947;28;20453;-89
2022/02/06 07:39:34;;;;;;;0.75;0.75;;;;;;;;;;5018481;28;20126;-95
2022/02/06 07:42:00;;;;;;;0.10;0.10;;;;;;;;;;5018232;28;20053;-93
2022/02/06 07:44:26;;;;;;;0.10;0.10;;;;;;;;;;5034893;28;20132;-93
2022/02/06 07:47:01;;;;;;;0.10;0.10;;;;;;;;;;5018700;28;20095;-92
2022/02/06 07:49:28;;;;;;;0.10;0.10;;;;;;;;;;5019523;28;20041;-93
2022/02/06 07:51:54;;;;;;;0.10;0.10;;;;;;;;;;5018035;28;20188;-92
2022/02/06 07:54:20;;;;;;;0.10;0.10;;;;;;;;;;5017836;28;20108;-88
2022/02/06 07:56:46;;;;;;;0.10;0.10;;;;;;;;;;5017927;28;20133;-91
2022/02/06 07:59:12;;;;;;;0.10;0.10;;;;;;;;;;5018331;28;20037;-91
2022/02/06 08:01:48;;;;;;;0.10;0.10;;;;;;;;;;5018517;28;20477;-96
2022/02/06 08:04:24;;;;;;;0.10;0.10;;;;;;;;;;5123326;22;20414;-96
2022/02/06 08:06:50;;;;;;;0.10;0.10;;;;;;;;;;4977102;28;20049;-90
2022/02/06 08:09:22;;;;;;;0.20;0.10;;;;;;;;;;4974893;28;20038;-90
2022/02/06 08:11:48;;;;;;;0.10;0.10;;;;;;;;;;4976168;28;20400;-88
2022/02/06 08:14:49;;;;;;;0.10;0.10;;;;;;;;;;4994322;28;20034;-89
2022/02/06 08:17:00;;;;;;;0.10;0.10;;;;;;;;;;4996896;28;20060;-90
2022/02/06 08:19:26;;;;;;;0.10;0.10;;;;;;;;;;4994410;28;20371;-90
2022/02/06 08:21:52;;;;;;;0.10;0.10;;;;;;;;;;4978140;28;20432;-89
2022/02/06 08:24:18;;;;;;;0.10;0.10;;;;;;;;;;4994267;28;20077;-89
2022/02/06 08:26:44;;;;;;;0.10;0.10;;;;;;;;;;4994257;28;20385;-88
2022/02/06 08:29:10;;;;;;;0.10;0.10;;;;;;;;;;5010626;28;20501;-90
2022/02/06 08:31:37;;;;;;;0.10;0.10;;;;;;;;;;4994176;28;20096;-90
2022/02/06 08:34:03;;;;;;;0.10;0.10;;;;;;;;;;4994110;28;20053;-89
2022/02/06 08:36:29;;;;;;;0.30;0.30;;;;;;;;;;4977933;28;20038;-90
2022/02/06 08:38:55;;;;;;;0.10;0.10;;;;;;;;;;4978277;28;20049;-90
2022/02/06 08:41:21;;;;;;;0.10;0.10;;;;;;;;;;4994240;28;20050;-90
2022/02/06 08:43:47;;;;;;;0.10;0.10;;;;;;;;;;4978049;28;20445;-89
2022/02/06 08:46:13;;;;;;;0.63;0.30;;;;;;;;;;4994248;28;20038;-89
2022/02/06 08:48:39;;;;;;;0.10;0.10;;;;;;;;;;4977937;28;20060;-89
2022/02/06 08:51:06;;;;;;;0.10;0.10;;;;;;;;;;4994092;28;20105;-89
2022/02/06 08:53:33;;;;;;;0.10;0.10;;;;;;;;;;4993927;28;20046;-89
2022/02/06 08:55:59;;;;;;;0.00;0.00;;;;;;;;;;4977707;28;20081;-89
2022/02/06 08:58:25;;;;;;;0.10;0.10;;;;;;;;;;4993954;28;20049;-89
2022/02/06 09:00:51;;;;;;;0.70;0.35;;;;;;;;;;4993781;28;20429;-88
2022/02/06 09:03:18;;;;;;;0.10;0.10;;;;;;;;;;4977754;28;20090;-90
2022/02/06 09:05:44;;;;;;;0.10;0.10;;;;;;;;;;4994302;28;20046;-88
2022/02/06 09:08:10;;;;;;;0.10;0.10;;;;;;;;;;4996705;28;20048;-88
2022/02/06 09:10:35;;;;;;;0.10;0.10;;;;;;;;;;5013788;28;20412;-89
2022/02/06 09:13:04;;;;;;;0.15;0.15;;;;;;;;;;4981427;28;20068;-88
2022/02/06 09:15:30;;;;;;;0.10;0.10;;;;;;;;;;4981462;28;20425;-88
2022/02/06 09:17:56;;;;;;;0.10;0.10;;;;;;;;;;4997495;28;20133;-89
2022/02/06 09:20:22;;;;;;;0.10;0.10;;;;;;;;;;4997307;28;20073;-88
2022/02/06 09:22:48;;;;;;;0.10;0.10;;;;;;;;;;4997288;28;20042;-89
2022/02/06 09:25:14;;;;;;;0.10;0.10;;;;;;;;;;4997210;28;20069;-88
2022/02/06 09:27:41;;;;;;;0.10;0.10;;;;;;;;;;4997432;28;20132;-88
2022/02/06 09:30:07;;;;;;;0.10;0.10;;;;;;;;;;4981027;28;20046;-88
2022/02/06 09:37:26;;;;;;;0.10;0.10;;;;;;;;;;4997085;28;20050;-88
2022/02/06 09:39:52;;;;;;;0.10;0.10;;;;;;;;;;4980978;28;20143;-88
2022/02/06 09:42:18;;;;;;;0.10;0.10;;;;;;;;;;4997148;28;20053;-88
2022/02/06 09:44:44;;;;;;;0.10;0.10;;;;;;;;;;4980594;28;20041;-88
2022/02/06 09:47:10;;;;;;;0.10;0.10;;;;;;;;;;4997434;28;20041;-89
2022/02/06 09:49:36;;;;;;;0.10;0.10;;;;;;;;;;4980677;28;20116;-88
2022/02/06 09:52:02;;;;;;;0.10;0.10;;;;;;;;;;4996624;28;20482;-87
2022/02/06 09:54:29;;;;;;;0.10;0.10;;;;;;;;;;4980600;28;20382;-89
2022/02/06 09:56:58;;;;;;;0.10;0.10;;;;;;;;;;4997549;28;20081;-88
2022/02/06 09:59:26;;;;;;;0.10;0.10;;;;;;;;;;4980622;28;20084;-88
2022/02/06 10:01:53;;;;;;;0.10;0.10;;;;;;;;;;4997082;28;20386;-88
2022/02/06 10:04:20;;;;;;;0.10;0.10;;;;;;;;;;4996462;28;20637;-88
2022/02/06 10:06:51;;;;;;;0.10;0.10;;;;;;;;;;4980170;28;20045;-88
2022/02/06 10:09:19;;;;;;;0.10;0.10;;;;;;;;;;4996444;28;20397;-88
2022/02/06 10:11:47;;;;;;;0.10;0.10;;;;;;;;;;4996141;28;20052;-88
2022/02/06 10:14:13;;;;;;;0.10;0.10;;;;;;;;;;4996843;28;20401;-88
2022/02/06 10:16:39;;;;;;;0.30;0.30;;;;;;;;;;4996478;28;20077;-88
2022/02/06 10:19:05;;;;;;;0.10;0.10;;;;;;;;;;4979873;28;20490;-88
2022/02/06 10:21:32;;;;;;;0.10;0.10;;;;;;;;;;4996180;28;20124;-88
2022/02/06 10:24:04;;;;;;;0.10;0.10;;;;;;;;;;4979950;28;20427;-88
2022/02/06 10:26:38;;;;;;;0.10;0.10;;;;;;;;;;4980745;28;20180;-88
2022/02/06 10:31:44;;;;;;;0.10;0.10;;;;;;;;;;4998002;28;20117;-87
2022/02/06 10:34:25;;;;;;;0.10;0.10;;;;;;;;;;4996220;28;20485;-88
2022/02/06 10:36:52;;;;;;;0.10;0.10;;;;;;;;;;4995557;28;20038;-88
2022/02/06 10:39:23;;;;;;;0.10;0.10;;;;;;;;;;4979828;28;20068;-88
2022/02/06 10:41:49;;;;;;;0.20;0.20;;;;;;;;;;4996529;28;20045;-89
2022/02/06 10:44:16;;;;;;;0.10;0.10;;;;;;;;;;4979705;28;20042;-88
2022/02/06 10:46:53;;;;;;;0.30;0.30;;;;;;;;;;4995874;28;20065;-88
2022/02/06 10:49:19;;;;;;;0.10;0.10;;;;;;;;;;4980271;28;20494;-89
2022/02/06 10:51:51;;;;;;;0.10;0.10;;;;;;;;;;4995779;28;20316;-89
2022/02/06 10:54:29;;;;;;;0.10;0.10;;;;;;;;;;4996073;28;20050;-90
2022/02/06 10:57:11;;;;;;;0.10;0.10;;;;;;;;;;5011690;28;20173;-88
2022/02/06 10:59:39;;;;;;;0.10;0.10;;;;;;;;;;4979386;28;20034;-88
2022/02/06 11:02:06;;;;;;;0.10;0.10;;;;;;;;;;4995373;28;20077;-89
2022/02/06 11:04:33;;;;;;;0.10;0.10;;;;;;;;;;4995332;28;20053;-89
2022/02/06 11:07:15;;;;;;;0.10;0.10;;;;;;;;;;4979279;28;20132;-90
2022/02/06 11:09:41;;;;;;;0.10;0.10;;;;;;;;;;4979511;28;20077;-89
2022/02/06 11:12:15;;;;;;;0.10;0.10;;;;;;;;;;4995234;28;20046;-89
2022/02/06 11:14:48;;;;;;;0.10;0.10;;;;;;;;;;4979391;28;20180;-87
2022/02/06 11:17:24;;;;;;;0.10;0.10;;;;;;;;;;4995511;28;20125;-89
2022/02/06 11:20:04;;;;;;;0.10;0.10;;;;;;;;;;4979776;28;20052;-89
2022/02/06 11:22:30;;;;;;;0.10;0.10;;;;;;;;;;4978922;28;20037;-89
2022/02/06 11:24:56;;;;;;;0.10;0.10;;;;;;;;;;4979024;28;20057;-89
2022/02/06 11:27:22;;;;;;;0.10;0.10;;;;;;;;;;4979169;28;20069;-89
2022/02/06 11:29:48;;;;;;;0.10;0.10;;;;;;;;;;4978729;28;20366;-90
2022/02/06 11:32:14;;;;;;;0.10;0.10;;;;;;;;;;4979069;28;20042;-89
2022/02/06 11:34:43;;;;;;;0.10;0.10;;;;;;;;;;4979207;28;20042;-90
2022/02/06 11:45:56;;;;;;;0.10;0.10;;;;;;;;;;5011219;28;20050;-89
2022/02/06 11:48:22;;;;;;;0.10;0.10;;;;;;;;;;4978849;28;20049;-88
2022/02/06 11:50:50;;;;;;;0.10;0.10;;;;;;;;;;5011284;28;20042;-89
2022/02/06 11:53:39;;;;;;;0.10;0.10;;;;;;;;;;4979019;28;20042;-89
2022/02/06 11:56:24;;;;;;;0.10;0.10;;;;;;;;;;5011006;28;20068;-89
2022/02/06 11:58:51;;;;;;;0.10;0.10;;;;;;;;;;4994646;28;20030;-88
2022/02/06 12:01:17;;;;;;;0.10;0.10;;;;;;;;;;4978904;28;20489;-89
2022/02/06 12:03:53;;;;;;;0.00;0.00;;;;;;;;;;5010919;28;20142;-89
2022/02/06 12:06:19;;;;;;;0.10;0.10;;;;;;;;;;4994677;28;20065;-90
2022/02/06 12:09:01;;;;;;;0.10;0.10;;;;;;;;;;4978617;28;20123;-90
2022/02/06 12:11:27;;;;;;;0.10;0.10;;;;;;;;;;5010906;28;20515;-89
2022/02/06 12:14:09;;;;;;;0.10;0.10;;;;;;;;;;4978183;28;20124;-89
2022/02/06 12:16:44;;;;;;;0.10;0.10;;;;;;;;;;4978251;28;20052;-89
2022/02/06 12:19:31;;;;;;;0.10;0.10;;;;;;;;;;4980281;28;20433;-90
2022/02/06 12:21:59;;;;;;;0.10;0.10;;;;;;;;;;5010915;28;20049;-90
2022/02/06 12:24:38;;;;;;;0.10;0.10;;;;;;;;;;4978809;28;20041;-89
2022/02/06 12:27:24;;;;;;;0.10;0.10;;;;;;;;;;4978477;28;20033;-90
2022/02/06 12:29:52;;;;;;;0.10;0.10;;;;;;;;;;4994523;28;20038;-88
2022/02/06 12:32:40;;;;;;;0.10;0.10;;;;;;;;;;4978726;28;20053;-89
2022/02/06 12:37:51;;;;;;;0.10;0.10;;;;;;;;;;4997060;28;20375;-89
2022/02/06 12:40:18;;;;;;;0.10;0.10;;;;;;;;;;4994631;28;20045;-89
2022/02/06 12:42:45;;;;;;;0.10;0.10;;;;;;;;;;4982068;28;20065;-89
2022/02/06 12:45:15;;;;;;;0.10;0.10;;;;;;;;;;4998244;28;20296;-89
2022/02/06 12:47:44;;;;;;;0.10;0.10;;;;;;;;;;5014229;28;20048;-90
2022/02/06 12:50:17;;;;;;;0.10;0.10;;;;;;;;;;4982003;28;20083;-89
2022/02/06 12:52:43;;;;;;;0.10;0.10;;;;;;;;;;4998417;28;20089;-90
2022/02/06 12:55:09;;;;;;;0.10;0.10;;;;;;;;;;4981893;28;20046;-90
2022/02/06 12:57:50;;;;;;;0.10;0.10;;;;;;;;;;4998185;28;20042;-89
2022/02/06 13:00:29;;;;;;;0.10;0.10;;;;;;;;;;4981676;28;20497;-89
2022/02/06 13:03:15;;;;;;;0.10;0.10;;;;;;;;;;4997962;28;20343;-89
2022/02/06 13:05:48;;;;;;;0.10;0.10;;;;;;;;;;5014030;28;20053;-89
2022/02/06 13:08:14;;;;;;;0.10;0.10;;;;;;;;;;4997973;28;20046;-90
2022/02/06 13:10:48;;;;;;;0.00;0.00;;;;;;;;;;4997933;28;20245;-89
2022/02/06 13:13:17;;;;;;;0.10;0.10;;;;;;;;;;4981435;28;20073;-90
2022/02/06 13:15:53;;;;;;;0.10;0.10;;;;;;;;;;4997967;28;20399;-89
2022/02/06 13:18:31;;;;;;;0.10;0.10;;;;;;;;;;4983184;28;20091;-90
2022/02/06 13:23:39;;;;;;;0.10;0.10;;;;;;;;;;4997662;28;20049;-90
2022/02/06 13:26:17;;;;;;;0.10;0.10;;;;;;;;;;4999141;28;20120;-89
2022/02/06 13:29:11;;;;;;;0.10;0.10;;;;;;;;;;4997411;28;20041;-89
2022/02/06 13:34:16;;;;;;;0.10;0.10;;;;;;;;;;4997028;28;20049;-89
2022/02/06 13:37:06;;;;;;;0.63;0.50;;;;;;;;;;4983359;28;20046;-89
2022/02/06 13:39:42;;;;;;;0.10;0.10;;;;;;;;;;4982494;28;20498;-90
2022/02/06 13:42:14;;;;;;;0.10;0.10;;;;;;;;;;4982478;28;20498;-89
2022/02/06 13:44:40;;;;;;;0.10;0.10;;;;;;;;;;4981250;28;20038;-89
2022/02/06 13:47:09;;;;;;;1.48;0.30;;;;;;;;;;4981174;28;20034;-89
2022/02/06 13:49:47;;;;;;;0.10;0.10;;;;;;;;;;4981091;28;20053;-89
2022/02/06 13:52:13;;;;;;;0.10;0.10;;;;;;;;;;4981996;28;20046;-90
2022/02/06 13:54:42;;;;;;;0.10;0.10;;;;;;;;;;4980638;28;20077;-89
2022/02/06 13:57:08;;;;;;;0.10;0.10;;;;;;;;;;4981432;28;20139;-90
2022/02/06 13:59:35;;;;;;;0.10;0.10;;;;;;;;;;4997007;28;20038;-89
2022/02/06 14:02:04;;;;;;;0.10;0.10;;;;;;;;;;4980829;28;20033;-90
2022/02/06 14:04:37;;;;;;;0.10;0.10;;;;;;;;;;4980878;28;20054;-90
2022/02/06 14:07:12;;;;;;;0.10;0.10;;;;;;;;;;4981436;28;20061;-89
2022/02/06 14:12:08;;;;;;;0.10;0.10;;;;;;;;;;4997479;28;20107;-89
2022/02/06 14:14:35;;;;;;;0.10;0.10;;;;;;;;;;4980759;28;20476;-90
2022/02/06 14:17:02;;;;;;;0.10;0.10;;;;;;;;;;4996711;28;20056;-91
2022/02/06 14:19:43;;;;;;;0.10;0.10;;;;;;;;;;4980747;28;20041;-90
2022/02/06 14:22:09;;;;;;;0.40;0.40;;;;;;;;;;4997334;28;20042;-89
2022/02/06 14:25:07;;;;;;;0.10;0.10;;;;;;;;;;4980612;28;20034;-89
2022/02/06 14:27:35;;;;;;;0.10;0.10;;;;;;;;;;4960305;28;20140;-89
2022/02/06 14:30:05;;;;;;;0.10;0.10;;;;;;;;;;4996892;28;20468;-90
2022/02/06 14:32:31;;;;;;;0.10;0.10;;;;;;;;;;4980150;28;20100;-90
2022/02/06 14:34:58;;;;;;;1.73;0.55;;;;;;;;;;4980482;28;20049;-90
2022/02/06 14:37:26;;;;;;;0.10;0.10;;;;;;;;;;4997276;28;20049;-90
2022/02/06 14:39:53;;;;;;;0.10;0.10;;;;;;;;;;4996615;28;20048;-90
2022/02/06 14:42:20;;;;;;;0.10;0.10;;;;;;;;;;4996433;28;20041;-90
2022/02/06 14:44:46;;;;;;;0.10;0.10;;;;;;;;;;4995823;28;20049;-90
2022/02/06 14:47:12;;;;;;;0.10;0.10;;;;;;;;;;4996095;28;20042;-91
2022/02/06 14:49:37;;;;;;;0.10;0.10;;;;;;;;;;4996094;28;20497;-89
2022/02/06 14:52:06;;;;;;;0.10;0.10;;;;;;;;;;4995986;28;20123;-89
2022/02/06 14:54:35;;;;;;;0.10;0.10;;;;;;;;;;4979958;28;20041;-90
2022/02/06 14:57:01;;;;;;;0.10;0.10;;;;;;;;;;4979492;28;20139;-90
2022/02/06 14:59:27;;;;;;;0.10;0.10;;;;;;;;;;4979752;28;20057;-89
2022/02/06 15:01:54;;;;;;;0.10;0.10;;;;;;;;;;4995692;28;20367;-90
2022/02/06 15:04:22;;;;;;;0.10;0.10;;;;;;;;;;4978446;28;20138;-90
2022/02/06 15:06:48;;;;;;;0.10;0.10;;;;;;;;;;4979409;28;20057;-89
2022/02/06 15:09:14;;;;;;;0.10;0.10;;;;;;;;;;4979571;28;20041;-90
2022/02/06 15:11:40;;;;;;;0.10;0.10;;;;;;;;;;4979496;28;20489;-90
2022/02/06 15:14:06;;;;;;;0.10;0.10;;;;;;;;;;4995204;28;20076;-90
2022/02/06 15:16:34;;;;;;;0.10;0.10;;;;;;;;;;4978871;28;20177;-90
2022/02/06 15:19:12;;;;;;;0.10;0.10;;;;;;;;;;4979802;28;20038;-90
2022/02/06 15:21:38;;;;;;;0.10;0.10;;;;;;;;;;4997093;28;20045;-90
2022/02/06 15:24:04;;;;;;;0.15;0.15;;;;;;;;;;4995514;28;20073;-91
2022/02/06 15:26:31;;;;;;;0.10;0.10;;;;;;;;;;4995302;28;20050;-90
2022/02/06 15:28:57;;;;;;;0.10;0.10;;;;;;;;;;4979225;28;20049;-90
2022/02/06 15:31:22;;;;;;;0.10;0.10;;;;;;;;;;4979318;28;20050;-89
2022/02/06 15:33:49;;;;;;;0.10;0.10;;;;;;;;;;4979017;28;20517;-90
2022/02/06 15:36:15;;;;;;;0.10;0.10;;;;;;;;;;4978892;28;20088;-90
2022/02/06 15:38:42;;;;;;;0.38;0.38;;;;;;;;;;4978847;28;20034;-89
2022/02/06 15:41:08;;;;;;;0.10;0.10;;;;;;;;;;4979138;28;20038;-90
2022/02/06 15:43:34;;;;;;;0.10;0.10;;;;;;;;;;4995137;28;20044;-90
2022/02/06 15:46:00;;;;;;;0.10;0.10;;;;;;;;;;4978933;28;20045;-90
2022/02/06 15:48:27;;;;;;;0.10;0.10;;;;;;;;;;4995375;28;20052;-90
2022/02/06 15:50:53;;;;;;;0.10;0.10;;;;;;;;;;4979007;28;20046;-89
2022/02/06 15:53:19;;;;;;;0.00;0.00;;;;;;;;;;4978723;28;20065;-90
2022/02/06 15:55:45;;;;;;;0.10;0.10;;;;;;;;;;5011257;28;20084;-89
2022/02/06 15:58:11;;;;;;;0.20;0.20;;;;;;;;;;4994910;28;20042;-91
2022/02/06 16:00:37;;;;;;;0.10;0.10;;;;;;;;;;4994950;28;20517;-90
2022/02/06 16:03:03;;;;;;;0.10;0.10;;;;;;;;;;4978580;28;20081;-90
2022/02/06 16:05:29;;;;;;;0.10;0.10;;;;;;;;;;4995177;28;20092;-90
2022/02/06 16:07:55;;;;;;;0.08;0.08;;;;;;;;;;4978524;28;20108;-90
2022/02/06 16:10:21;;;;;;;0.10;0.10;;;;;;;;;;4995006;28;20144;-89
2022/02/06 16:12:47;;;;;;;0.00;0.00;;;;;;;;;;4978571;28;20466;-89
2022/02/06 16:15:13;;;;;;;0.10;0.10;;;;;;;;;;4978525;28;20088;-89
2022/02/06 16:17:39;;;;;;;0.00;0.00;;;;;;;;;;4982295;28;20064;-90
2022/02/06 16:20:06;;;;;;;0.00;0.00;;;;;;;;;;4982359;28;20127;-90
2022/02/06 16:22:34;;;;;;;0.00;0.00;;;;;;;;;;4982269;28;20193;-89
2022/02/06 16:25:01;;;;;;;0.00;0.00;;;;;;;;;;4983037;28;20358;-89
2022/02/06 16:27:29;;;;;;;0.10;0.10;;;;;;;;;;4982642;28;20073;-88
2022/02/06 16:29:57;;;;;;;0.10;0.10;;;;;;;;;;4982504;28;20084;-89
2022/02/06 16:32:23;;;;;;;0.10;0.10;;;;;;;;;;4982292;28;20406;-90
2022/02/06 16:34:49;;;;;;;0.10;0.10;;;;;;;;;;4998315;28;20038;-89
2022/02/06 16:37:15;;;;;;;0.00;0.00;;;;;;;;;;4982037;28;20037;-89
2022/02/06 16:39:42;;;;;;;0.10;0.10;;;;;;;;;;4982580;28;20415;-90
2022/02/06 16:42:11;;;;;;;0.10;0.10;;;;;;;;;;4982118;28;20038;-90
2022/02/06 16:44:37;;;;;;;0.10;0.10;;;;;;;;;;4998436;28;20402;-90
2022/02/06 16:47:04;;;;;;;0.00;0.00;;;;;;;;;;4982040;28;20405;-89
2022/02/06 16:49:30;;;;;;;0.10;0.10;;;;;;;;;;4981950;28;20081;-89
2022/02/06 16:51:56;;;;;;;0.05;0.05;;;;;;;;;;4981886;28;20077;-90
2022/02/06 16:54:22;;;;;;;0.00;0.00;;;;;;;;;;4998395;28;20379;-89
2022/02/06 16:56:48;;;;;;;0.10;0.10;;;;;;;;;;5003944;28;20136;-88
2022/02/06 16:59:14;;;;;;;0.10;0.10;;;;;;;;;;5038042;28;20132;-89
2022/02/06 17:01:40;;;;;;;0.00;0.00;;;;;;;;;;5002613;28;20097;-88
2022/02/06 17:04:06;;;;;;;0.43;0.40;;;;;;;;;;5010343;28;20054;-90
2022/02/06 17:06:32;;;;;;;0.00;0.00;;;;;;;;;;5004500;28;20453;-89
2022/02/06 17:08:59;;;;;;;0.10;0.10;;;;;;;;;;5019998;28;20030;-89
2022/02/06 17:11:25;;;;;;;0.00;0.00;;;;;;;;;;5020026;28;20057;-89